sensor_id;sensor_type;location;lat;lon;timestamp;P1;durP1;ratioP1;P2;durP2;ratioP2
59854;SDS011;45732;52.850;6.896;2023-08-06T00:00:26;13.13;;;7.00;;
59854;SDS011;45732;52.850;6.896;2023-08-06T00:02:52;10.95;;;7.32;;
59854;SDS011;45732;52.850;6.896;2023-08-06T00:05:18;9.18;;;7.07;;
59854;SDS011;45732;52.850;6.896;2023-08-06T00:07:46;10.55;;;6.97;;
59854;SDS011;45732;52.850;6.896;2023-08-06T00:10:12;11.05;;;7.75;;
59854;SDS011;45732;52.850;6.896;2023-08-06T00:12:38;12.65;;;7.63;;
59854;SDS011;45732;52.850;6.896;2023-08-06T00:15:04;10.05;;;6.95;;
59854;SDS011;45732;52.850;6.896;2023-08-06T00:17:30;10.18;;;7.45;;
59854;SDS011;45732;52.850;6.896;2023-08-06T00:19:56;10.35;;;7.47;;
59854;SDS011;45732;52.850;6.896;2023-08-06T00:22:21;16.50;;;8.38;;
59854;SDS011;45732;52.850;6.896;2023-08-06T00:24:47;11.32;;;7.20;;
59854;SDS011;45732;52.850;6.896;2023-08-06T00:27:13;11.73;;;7.40;;
59854;SDS011;45732;52.850;6.896;2023-08-06T00:29:38;10.05;;;6.88;;
59854;SDS011;45732;52.850;6.896;2023-08-06T00:32:04;11.50;;;7.57;;
59854;SDS011;45732;52.850;6.896;2023-08-06T00:34:30;9.95;;;7.05;;
59854;SDS011;45732;52.850;6.896;2023-08-06T00:36:55;9.65;;;7.15;;
59854;SDS011;45732;52.850;6.896;2023-08-06T00:39:21;9.32;;;6.75;;
59854;SDS011;45732;52.850;6.896;2023-08-06T00:41:48;8.82;;;7.03;;
59854;SDS011;45732;52.850;6.896;2023-08-06T00:44:13;11.40;;;6.93;;
59854;SDS011;45732;52.850;6.896;2023-08-06T00:46:39;10.85;;;7.40;;
59854;SDS011;45732;52.850;6.896;2023-08-06T00:49:05;10.38;;;6.75;;
59854;SDS011;45732;52.850;6.896;2023-08-06T00:51:31;11.75;;;7.22;;
59854;SDS011;45732;52.850;6.896;2023-08-06T00:53:57;9.30;;;6.78;;
59854;SDS011;45732;52.850;6.896;2023-08-06T00:56:23;9.52;;;7.15;;
59854;SDS011;45732;52.850;6.896;2023-08-06T00:58:50;9.55;;;7.45;;
59854;SDS011;45732;52.850;6.896;2023-08-06T01:01:16;10.80;;;7.25;;
59854;SDS011;45732;52.850;6.896;2023-08-06T01:03:41;10.50;;;7.00;;
59854;SDS011;45732;52.850;6.896;2023-08-06T01:06:07;10.45;;;7.32;;
59854;SDS011;45732;52.850;6.896;2023-08-06T01:09:17;10.00;;;7.50;;
59854;SDS011;45732;52.850;6.896;2023-08-06T01:14:23;11.50;;;7.20;;
59854;SDS011;45732;52.850;6.896;2023-08-06T01:19:18;9.60;;;7.90;;
59854;SDS011;45732;52.850;6.896;2023-08-06T01:21:44;10.45;;;8.00;;
59854;SDS011;45732;52.850;6.896;2023-08-06T01:24:10;11.88;;;8.00;;
59854;SDS011;45732;52.850;6.896;2023-08-06T01:31:43;10.50;;;8.52;;
59854;SDS011;45732;52.850;6.896;2023-08-06T01:34:13;10.93;;;7.97;;
59854;SDS011;45732;52.850;6.896;2023-08-06T01:36:42;9.75;;;8.30;;
59854;SDS011;45732;52.850;6.896;2023-08-06T01:39:08;10.38;;;8.52;;
59854;SDS011;45732;52.850;6.896;2023-08-06T01:41:34;10.80;;;8.50;;
59854;SDS011;45732;52.850;6.896;2023-08-06T01:44:00;14.80;;;9.00;;
59854;SDS011;45732;52.850;6.896;2023-08-06T01:46:25;9.63;;;8.05;;
59854;SDS011;45732;52.850;6.896;2023-08-06T01:48:51;12.30;;;9.63;;
59854;SDS011;45732;52.850;6.896;2023-08-06T01:51:17;11.13;;;9.13;;
59854;SDS011;45732;52.850;6.896;2023-08-06T01:53:42;11.43;;;9.55;;
59854;SDS011;45732;52.850;6.896;2023-08-06T01:56:08;10.48;;;8.40;;
59854;SDS011;45732;52.850;6.896;2023-08-06T01:58:34;13.40;;;9.55;;
59854;SDS011;45732;52.850;6.896;2023-08-06T02:01:00;12.85;;;9.55;;
59854;SDS011;45732;52.850;6.896;2023-08-06T02:03:27;11.15;;;9.90;;
59854;SDS011;45732;52.850;6.896;2023-08-06T02:05:52;12.15;;;9.18;;
59854;SDS011;45732;52.850;6.896;2023-08-06T02:08:18;13.45;;;9.68;;
59854;SDS011;45732;52.850;6.896;2023-08-06T02:10:44;10.63;;;9.50;;
59854;SDS011;45732;52.850;6.896;2023-08-06T02:13:10;12.85;;;9.93;;
59854;SDS011;45732;52.850;6.896;2023-08-06T02:15:41;11.18;;;9.73;;
59854;SDS011;45732;52.850;6.896;2023-08-06T02:18:08;12.85;;;9.43;;
59854;SDS011;45732;52.850;6.896;2023-08-06T02:20:33;12.80;;;10.05;;
59854;SDS011;45732;52.850;6.896;2023-08-06T02:22:59;12.82;;;9.50;;
59854;SDS011;45732;52.850;6.896;2023-08-06T02:25:25;10.68;;;9.27;;
59854;SDS011;45732;52.850;6.896;2023-08-06T02:27:50;12.32;;;9.98;;
59854;SDS011;45732;52.850;6.896;2023-08-06T02:30:16;12.32;;;9.23;;
59854;SDS011;45732;52.850;6.896;2023-08-06T02:32:42;11.32;;;9.77;;
59854;SDS011;45732;52.850;6.896;2023-08-06T02:35:08;12.10;;;9.27;;
59854;SDS011;45732;52.850;6.896;2023-08-06T02:37:34;10.68;;;9.55;;
59854;SDS011;45732;52.850;6.896;2023-08-06T02:39:59;11.30;;;9.27;;
59854;SDS011;45732;52.850;6.896;2023-08-06T02:42:25;13.27;;;9.38;;
59854;SDS011;45732;52.850;6.896;2023-08-06T02:44:52;12.43;;;10.00;;
59854;SDS011;45732;52.850;6.896;2023-08-06T02:47:20;14.10;;;10.82;;
59854;SDS011;45732;52.850;6.896;2023-08-06T02:49:46;12.48;;;9.50;;
59854;SDS011;45732;52.850;6.896;2023-08-06T02:52:11;13.02;;;9.95;;
59854;SDS011;45732;52.850;6.896;2023-08-06T02:54:37;12.23;;;10.00;;
59854;SDS011;45732;52.850;6.896;2023-08-06T02:57:04;11.82;;;9.82;;
59854;SDS011;45732;52.850;6.896;2023-08-06T02:59:30;10.52;;;9.32;;
59854;SDS011;45732;52.850;6.896;2023-08-06T03:01:56;12.88;;;10.23;;
59854;SDS011;45732;52.850;6.896;2023-08-06T03:04:22;15.13;;;9.50;;
59854;SDS011;45732;52.850;6.896;2023-08-06T03:06:51;12.57;;;10.45;;
59854;SDS011;45732;52.850;6.896;2023-08-06T03:09:17;13.40;;;9.68;;
59854;SDS011;45732;52.850;6.896;2023-08-06T03:11:43;12.40;;;10.48;;
59854;SDS011;45732;52.850;6.896;2023-08-06T03:14:09;11.32;;;9.65;;
59854;SDS011;45732;52.850;6.896;2023-08-06T03:16:35;12.60;;;10.02;;
59854;SDS011;45732;52.850;6.896;2023-08-06T03:19:01;11.20;;;9.90;;
59854;SDS011;45732;52.850;6.896;2023-08-06T03:21:27;12.55;;;10.23;;
59854;SDS011;45732;52.850;6.896;2023-08-06T03:23:52;12.50;;;9.88;;
59854;SDS011;45732;52.850;6.896;2023-08-06T03:26:18;12.40;;;9.73;;
59854;SDS011;45732;52.850;6.896;2023-08-06T03:28:44;13.32;;;9.55;;
59854;SDS011;45732;52.850;6.896;2023-08-06T03:31:10;12.80;;;10.07;;
59854;SDS011;45732;52.850;6.896;2023-08-06T03:33:35;11.27;;;9.55;;
59854;SDS011;45732;52.850;6.896;2023-08-06T03:36:01;11.10;;;9.57;;
59854;SDS011;45732;52.850;6.896;2023-08-06T03:38:27;11.05;;;8.98;;
59854;SDS011;45732;52.850;6.896;2023-08-06T03:40:53;10.63;;;9.52;;
59854;SDS011;45732;52.850;6.896;2023-08-06T03:43:18;15.80;;;9.82;;
59854;SDS011;45732;52.850;6.896;2023-08-06T03:45:44;12.27;;;8.70;;
59854;SDS011;45732;52.850;6.896;2023-08-06T03:48:10;12.07;;;9.25;;
59854;SDS011;45732;52.850;6.896;2023-08-06T03:50:36;12.85;;;9.40;;
59854;SDS011;45732;52.850;6.896;2023-08-06T03:53:03;14.07;;;10.02;;
59854;SDS011;45732;52.850;6.896;2023-08-06T03:55:28;12.38;;;9.20;;
59854;SDS011;45732;52.850;6.896;2023-08-06T03:57:54;11.27;;;10.07;;
59854;SDS011;45732;52.850;6.896;2023-08-06T04:00:20;12.60;;;9.32;;
59854;SDS011;45732;52.850;6.896;2023-08-06T04:02:45;11.93;;;9.43;;
59854;SDS011;45732;52.850;6.896;2023-08-06T04:05:11;12.00;;;9.95;;
59854;SDS011;45732;52.850;6.896;2023-08-06T04:07:37;12.18;;;9.35;;
59854;SDS011;45732;52.850;6.896;2023-08-06T04:10:03;14.73;;;10.45;;
59854;SDS011;45732;52.850;6.896;2023-08-06T04:12:30;11.00;;;8.95;;
59854;SDS011;45732;52.850;6.896;2023-08-06T04:14:59;10.57;;;9.50;;
59854;SDS011;45732;52.850;6.896;2023-08-06T04:17:25;12.32;;;9.38;;
59854;SDS011;45732;52.850;6.896;2023-08-06T04:19:52;12.18;;;9.05;;
59854;SDS011;45732;52.850;6.896;2023-08-06T04:22:19;11.93;;;8.65;;
59854;SDS011;45732;52.850;6.896;2023-08-06T04:24:45;10.55;;;8.85;;
59854;SDS011;45732;52.850;6.896;2023-08-06T04:27:11;10.60;;;9.25;;
59854;SDS011;45732;52.850;6.896;2023-08-06T04:29:38;12.68;;;9.20;;
59854;SDS011;45732;52.850;6.896;2023-08-06T04:32:05;12.30;;;10.07;;
59854;SDS011;45732;52.850;6.896;2023-08-06T04:34:32;11.43;;;9.65;;
59854;SDS011;45732;52.850;6.896;2023-08-06T04:36:59;12.68;;;9.82;;
59854;SDS011;45732;52.850;6.896;2023-08-06T04:39:25;11.80;;;9.50;;
59854;SDS011;45732;52.850;6.896;2023-08-06T04:41:51;11.45;;;9.82;;
59854;SDS011;45732;52.850;6.896;2023-08-06T04:44:16;13.25;;;10.18;;
59854;SDS011;45732;52.850;6.896;2023-08-06T04:46:42;13.32;;;9.85;;
59854;SDS011;45732;52.850;6.896;2023-08-06T04:49:08;12.27;;;10.20;;
59854;SDS011;45732;52.850;6.896;2023-08-06T04:51:34;11.85;;;10.32;;
59854;SDS011;45732;52.850;6.896;2023-08-06T04:53:59;11.65;;;10.40;;
59854;SDS011;45732;52.850;6.896;2023-08-06T04:56:25;11.93;;;10.50;;
59854;SDS011;45732;52.850;6.896;2023-08-06T04:58:51;11.55;;;10.35;;
59854;SDS011;45732;52.850;6.896;2023-08-06T05:01:17;14.10;;;11.02;;
59854;SDS011;45732;52.850;6.896;2023-08-06T05:03:43;13.05;;;10.63;;
59854;SDS011;45732;52.850;6.896;2023-08-06T05:06:08;11.88;;;10.43;;
59854;SDS011;45732;52.850;6.896;2023-08-06T05:08:34;12.70;;;10.35;;
59854;SDS011;45732;52.850;6.896;2023-08-06T05:11:00;11.80;;;10.55;;
59854;SDS011;45732;52.850;6.896;2023-08-06T05:13:25;13.52;;;10.38;;
59854;SDS011;45732;52.850;6.896;2023-08-06T05:15:53;13.00;;;10.90;;
59854;SDS011;45732;52.850;6.896;2023-08-06T05:18:19;13.35;;;11.55;;
59854;SDS011;45732;52.850;6.896;2023-08-06T05:20:45;15.35;;;11.60;;
59854;SDS011;45732;52.850;6.896;2023-08-06T05:23:10;12.23;;;10.90;;
59854;SDS011;45732;52.850;6.896;2023-08-06T05:25:39;14.15;;;11.82;;
59854;SDS011;45732;52.850;6.896;2023-08-06T05:28:05;12.27;;;10.98;;
59854;SDS011;45732;52.850;6.896;2023-08-06T05:30:31;13.02;;;11.70;;
59854;SDS011;45732;52.850;6.896;2023-08-06T05:32:57;12.52;;;11.23;;
59854;SDS011;45732;52.850;6.896;2023-08-06T05:35:23;12.85;;;11.35;;
59854;SDS011;45732;52.850;6.896;2023-08-06T05:37:50;14.73;;;11.85;;
59854;SDS011;45732;52.850;6.896;2023-08-06T05:40:15;13.70;;;12.13;;
59854;SDS011;45732;52.850;6.896;2023-08-06T05:42:41;14.77;;;12.40;;
59854;SDS011;45732;52.850;6.896;2023-08-06T05:45:07;15.45;;;12.30;;
59854;SDS011;45732;52.850;6.896;2023-08-06T05:47:33;13.93;;;11.23;;
59854;SDS011;45732;52.850;6.896;2023-08-06T05:49:59;14.02;;;12.45;;
59854;SDS011;45732;52.850;6.896;2023-08-06T05:52:25;13.60;;;11.85;;
59854;SDS011;45732;52.850;6.896;2023-08-06T05:54:50;12.73;;;10.85;;
59854;SDS011;45732;52.850;6.896;2023-08-06T05:57:16;13.45;;;12.00;;
59854;SDS011;45732;52.850;6.896;2023-08-06T05:59:42;17.98;;;12.55;;
59854;SDS011;45732;52.850;6.896;2023-08-06T06:02:08;13.48;;;12.07;;
59854;SDS011;45732;52.850;6.896;2023-08-06T06:04:34;13.60;;;11.77;;
59854;SDS011;45732;52.850;6.896;2023-08-06T06:07:00;15.48;;;11.43;;
59854;SDS011;45732;52.850;6.896;2023-08-06T06:09:26;14.57;;;11.60;;
59854;SDS011;45732;52.850;6.896;2023-08-06T06:11:52;12.88;;;11.55;;
59854;SDS011;45732;52.850;6.896;2023-08-06T06:14:17;13.90;;;11.73;;
59854;SDS011;45732;52.850;6.896;2023-08-06T06:16:44;14.23;;;12.10;;
59854;SDS011;45732;52.850;6.896;2023-08-06T06:19:10;15.57;;;12.23;;
59854;SDS011;45732;52.850;6.896;2023-08-06T06:21:36;13.73;;;12.30;;
59854;SDS011;45732;52.850;6.896;2023-08-06T06:24:03;14.50;;;12.55;;
59854;SDS011;45732;52.850;6.896;2023-08-06T06:26:30;13.93;;;11.98;;
59854;SDS011;45732;52.850;6.896;2023-08-06T06:28:57;14.88;;;12.75;;
59854;SDS011;45732;52.850;6.896;2023-08-06T06:31:22;13.77;;;12.00;;
59854;SDS011;45732;52.850;6.896;2023-08-06T06:33:48;13.32;;;11.93;;
59854;SDS011;45732;52.850;6.896;2023-08-06T06:36:14;12.77;;;11.38;;
59854;SDS011;45732;52.850;6.896;2023-08-06T06:38:39;14.25;;;12.27;;
59854;SDS011;45732;52.850;6.896;2023-08-06T06:41:05;15.13;;;11.88;;
59854;SDS011;45732;52.850;6.896;2023-08-06T06:43:32;14.05;;;11.85;;
59854;SDS011;45732;52.850;6.896;2023-08-06T06:46:00;13.63;;;12.05;;
59854;SDS011;45732;52.850;6.896;2023-08-06T06:48:27;13.07;;;11.68;;
59854;SDS011;45732;52.850;6.896;2023-08-06T06:50:54;14.27;;;12.13;;
59854;SDS011;45732;52.850;6.896;2023-08-06T06:53:20;13.40;;;11.77;;
59854;SDS011;45732;52.850;6.896;2023-08-06T06:55:48;12.90;;;11.60;;
59854;SDS011;45732;52.850;6.896;2023-08-06T06:58:15;14.07;;;11.80;;
59854;SDS011;45732;52.850;6.896;2023-08-06T07:00:41;16.13;;;11.57;;
59854;SDS011;45732;52.850;6.896;2023-08-06T07:03:07;12.70;;;11.32;;
59854;SDS011;45732;52.850;6.896;2023-08-06T07:05:32;11.90;;;10.63;;
59854;SDS011;45732;52.850;6.896;2023-08-06T07:07:58;12.13;;;10.43;;
59854;SDS011;45732;52.850;6.896;2023-08-06T07:10:25;12.98;;;10.98;;
59854;SDS011;45732;52.850;6.896;2023-08-06T07:12:51;11.45;;;10.25;;
59854;SDS011;45732;52.850;6.896;2023-08-06T07:15:16;12.30;;;10.48;;
59854;SDS011;45732;52.850;6.896;2023-08-06T07:17:43;12.02;;;10.20;;
59854;SDS011;45732;52.850;6.896;2023-08-06T07:20:09;10.98;;;9.88;;
59854;SDS011;45732;52.850;6.896;2023-08-06T07:22:35;12.75;;;10.65;;
59854;SDS011;45732;52.850;6.896;2023-08-06T07:25:01;13.05;;;10.82;;
59854;SDS011;45732;52.850;6.896;2023-08-06T07:27:27;10.88;;;9.73;;
59854;SDS011;45732;52.850;6.896;2023-08-06T07:29:52;10.13;;;9.13;;
59854;SDS011;45732;52.850;6.896;2023-08-06T07:32:18;11.05;;;9.68;;
59854;SDS011;45732;52.850;6.896;2023-08-06T07:34:44;11.20;;;9.80;;
59854;SDS011;45732;52.850;6.896;2023-08-06T07:37:09;12.52;;;10.40;;
59854;SDS011;45732;52.850;6.896;2023-08-06T07:39:35;13.35;;;10.45;;
59854;SDS011;45732;52.850;6.896;2023-08-06T07:42:03;14.00;;;11.00;;
59854;SDS011;45732;52.850;6.896;2023-08-06T07:44:31;12.13;;;10.43;;
59854;SDS011;45732;52.850;6.896;2023-08-06T07:46:56;11.75;;;10.55;;
59854;SDS011;45732;52.850;6.896;2023-08-06T07:49:22;11.45;;;10.25;;
59854;SDS011;45732;52.850;6.896;2023-08-06T07:51:48;11.90;;;10.57;;
59854;SDS011;45732;52.850;6.896;2023-08-06T07:54:13;11.65;;;10.45;;
59854;SDS011;45732;52.850;6.896;2023-08-06T07:56:39;11.90;;;10.70;;
59854;SDS011;45732;52.850;6.896;2023-08-06T07:59:05;10.80;;;9.70;;
59854;SDS011;45732;52.850;6.896;2023-08-06T08:01:30;11.63;;;10.30;;
59854;SDS011;45732;52.850;6.896;2023-08-06T08:03:56;12.55;;;10.90;;
59854;SDS011;45732;52.850;6.896;2023-08-06T08:06:22;12.45;;;10.43;;
59854;SDS011;45732;52.850;6.896;2023-08-06T08:08:48;11.35;;;10.15;;
59854;SDS011;45732;52.850;6.896;2023-08-06T08:11:14;13.70;;;10.50;;
59854;SDS011;45732;52.850;6.896;2023-08-06T08:13:41;11.30;;;10.07;;
59854;SDS011;45732;52.850;6.896;2023-08-06T08:16:07;13.52;;;10.13;;
59854;SDS011;45732;52.850;6.896;2023-08-06T08:18:32;10.75;;;9.65;;
59854;SDS011;45732;52.850;6.896;2023-08-06T08:20:58;11.95;;;9.93;;
59854;SDS011;45732;52.850;6.896;2023-08-06T08:23:24;13.02;;;10.20;;
59854;SDS011;45732;52.850;6.896;2023-08-06T08:25:50;11.52;;;10.32;;
59854;SDS011;45732;52.850;6.896;2023-08-06T08:28:16;10.38;;;8.90;;
59854;SDS011;45732;52.850;6.896;2023-08-06T08:30:42;11.23;;;9.60;;
59854;SDS011;45732;52.850;6.896;2023-08-06T08:33:07;14.27;;;10.40;;
59854;SDS011;45732;52.850;6.896;2023-08-06T08:35:33;11.75;;;9.60;;
59854;SDS011;45732;52.850;6.896;2023-08-06T08:37:59;13.63;;;9.45;;
59854;SDS011;45732;52.850;6.896;2023-08-06T08:40:27;12.30;;;9.20;;
59854;SDS011;45732;52.850;6.896;2023-08-06T08:42:56;11.57;;;9.25;;
59854;SDS011;45732;52.850;6.896;2023-08-06T08:45:23;10.48;;;8.93;;
59854;SDS011;45732;52.850;6.896;2023-08-06T08:47:52;9.52;;;8.52;;
59854;SDS011;45732;52.850;6.896;2023-08-06T08:50:18;12.10;;;9.40;;
59854;SDS011;45732;52.850;6.896;2023-08-06T08:52:45;10.55;;;9.45;;
59854;SDS011;45732;52.850;6.896;2023-08-06T08:55:11;13.48;;;9.20;;
59854;SDS011;45732;52.850;6.896;2023-08-06T08:57:39;10.10;;;9.10;;
59854;SDS011;45732;52.850;6.896;2023-08-06T09:00:05;8.82;;;7.93;;
59854;SDS011;45732;52.850;6.896;2023-08-06T09:02:32;10.05;;;8.60;;
59854;SDS011;45732;52.850;6.896;2023-08-06T09:04:59;11.68;;;9.13;;
59854;SDS011;45732;52.850;6.896;2023-08-06T09:07:27;10.00;;;8.48;;
59854;SDS011;45732;52.850;6.896;2023-08-06T09:12:28;9.90;;;8.07;;
59854;SDS011;45732;52.850;6.896;2023-08-06T09:14:54;11.20;;;8.18;;
59854;SDS011;45732;52.850;6.896;2023-08-06T09:17:20;8.88;;;7.95;;
59854;SDS011;45732;52.850;6.896;2023-08-06T09:19:46;10.50;;;8.35;;
59854;SDS011;45732;52.850;6.896;2023-08-06T09:22:13;9.35;;;7.95;;
59854;SDS011;45732;52.850;6.896;2023-08-06T09:24:42;13.10;;;8.05;;
59854;SDS011;45732;52.850;6.896;2023-08-06T09:27:12;9.95;;;8.15;;
59854;SDS011;45732;52.850;6.896;2023-08-06T09:29:44;9.23;;;8.30;;
59854;SDS011;45732;52.850;6.896;2023-08-06T09:32:13;9.23;;;7.93;;
59854;SDS011;45732;52.850;6.896;2023-08-06T09:34:39;8.95;;;7.35;;
59854;SDS011;45732;52.850;6.896;2023-08-06T09:37:08;9.07;;;8.02;;
59854;SDS011;45732;52.850;6.896;2023-08-06T09:39:35;9.68;;;8.10;;
59854;SDS011;45732;52.850;6.896;2023-08-06T09:42:01;8.15;;;7.20;;
59854;SDS011;45732;52.850;6.896;2023-08-06T09:44:32;9.10;;;6.55;;
59854;SDS011;45732;52.850;6.896;2023-08-06T09:46:59;8.23;;;6.90;;
59854;SDS011;45732;52.850;6.896;2023-08-06T09:49:28;10.77;;;7.25;;
59854;SDS011;45732;52.850;6.896;2023-08-06T09:52:07;9.65;;;7.32;;
59854;SDS011;45732;52.850;6.896;2023-08-06T09:54:37;8.50;;;6.53;;
59854;SDS011;45732;52.850;6.896;2023-08-06T09:57:03;9.07;;;6.75;;
59854;SDS011;45732;52.850;6.896;2023-08-06T09:59:30;8.48;;;6.78;;
59854;SDS011;45732;52.850;6.896;2023-08-06T10:01:58;8.20;;;6.90;;
59854;SDS011;45732;52.850;6.896;2023-08-06T10:04:24;11.18;;;6.43;;
59854;SDS011;45732;52.850;6.896;2023-08-06T10:06:51;8.82;;;6.32;;
59854;SDS011;45732;52.850;6.896;2023-08-06T10:09:18;7.45;;;6.25;;
59854;SDS011;45732;52.850;6.896;2023-08-06T10:11:47;9.10;;;5.80;;
59854;SDS011;45732;52.850;6.896;2023-08-06T10:14:17;8.15;;;6.18;;
59854;SDS011;45732;52.850;6.896;2023-08-06T10:16:53;8.85;;;5.95;;
59854;SDS011;45732;52.850;6.896;2023-08-06T10:19:22;7.75;;;5.72;;
59854;SDS011;45732;52.850;6.896;2023-08-06T10:22:08;9.27;;;5.90;;
59854;SDS011;45732;52.850;6.896;2023-08-06T10:24:49;8.63;;;5.63;;
59854;SDS011;45732;52.850;6.896;2023-08-06T10:30:23;7.57;;;5.45;;
59854;SDS011;45732;52.850;6.896;2023-08-06T10:33:00;7.18;;;5.00;;
59854;SDS011;45732;52.850;6.896;2023-08-06T10:38:14;7.70;;;4.82;;
59854;SDS011;45732;52.850;6.896;2023-08-06T10:40:41;7.05;;;5.07;;
59854;SDS011;45732;52.850;6.896;2023-08-06T10:45:53;7.65;;;4.43;;
59854;SDS011;45732;52.850;6.896;2023-08-06T10:48:35;6.50;;;4.80;;
59854;SDS011;45732;52.850;6.896;2023-08-06T10:51:02;9.35;;;4.35;;
59854;SDS011;45732;52.850;6.896;2023-08-06T10:53:29;6.10;;;4.10;;
59854;SDS011;45732;52.850;6.896;2023-08-06T10:55:55;6.93;;;4.80;;
59854;SDS011;45732;52.850;6.896;2023-08-06T10:58:21;7.68;;;4.57;;
59854;SDS011;45732;52.850;6.896;2023-08-06T11:00:47;6.25;;;4.00;;
59854;SDS011;45732;52.850;6.896;2023-08-06T11:03:13;8.27;;;4.55;;
59854;SDS011;45732;52.850;6.896;2023-08-06T11:05:40;6.85;;;4.32;;
59854;SDS011;45732;52.850;6.896;2023-08-06T11:08:06;7.28;;;3.78;;
59854;SDS011;45732;52.850;6.896;2023-08-06T11:10:34;6.43;;;3.42;;
59854;SDS011;45732;52.850;6.896;2023-08-06T11:13:01;5.38;;;3.63;;
59854;SDS011;45732;52.850;6.896;2023-08-06T11:15:27;5.85;;;3.33;;
59854;SDS011;45732;52.850;6.896;2023-08-06T11:17:54;4.55;;;3.28;;
59854;SDS011;45732;52.850;6.896;2023-08-06T11:20:20;3.95;;;2.95;;
59854;SDS011;45732;52.850;6.896;2023-08-06T11:22:49;5.53;;;3.38;;
59854;SDS011;45732;52.850;6.896;2023-08-06T11:25:15;4.85;;;3.67;;
59854;SDS011;45732;52.850;6.896;2023-08-06T11:27:41;6.65;;;3.42;;
59854;SDS011;45732;52.850;6.896;2023-08-06T11:30:07;4.72;;;3.00;;
59854;SDS011;45732;52.850;6.896;2023-08-06T11:32:44;4.97;;;2.90;;
59854;SDS011;45732;52.850;6.896;2023-08-06T11:35:12;4.30;;;2.80;;
59854;SDS011;45732;52.850;6.896;2023-08-06T11:37:47;3.75;;;2.72;;
59854;SDS011;45732;52.850;6.896;2023-08-06T11:40:14;3.97;;;2.05;;
59854;SDS011;45732;52.850;6.896;2023-08-06T11:42:40;5.03;;;2.10;;
59854;SDS011;45732;52.850;6.896;2023-08-06T11:45:07;4.60;;;1.95;;
59854;SDS011;45732;52.850;6.896;2023-08-06T11:47:36;5.20;;;2.00;;
59854;SDS011;45732;52.850;6.896;2023-08-06T11:50:05;2.83;;;1.88;;
59854;SDS011;45732;52.850;6.896;2023-08-06T11:52:31;5.32;;;1.90;;
59854;SDS011;45732;52.850;6.896;2023-08-06T11:55:00;3.50;;;2.10;;
59854;SDS011;45732;52.850;6.896;2023-08-06T11:57:29;4.20;;;1.73;;
59854;SDS011;45732;52.850;6.896;2023-08-06T12:00:05;3.08;;;1.75;;
59854;SDS011;45732;52.850;6.896;2023-08-06T12:02:33;2.75;;;1.73;;
59854;SDS011;45732;52.850;6.896;2023-08-06T12:07:32;2.83;;;1.70;;
59854;SDS011;45732;52.850;6.896;2023-08-06T12:10:01;3.05;;;1.90;;
59854;SDS011;45732;52.850;6.896;2023-08-06T12:12:27;2.40;;;1.70;;
59854;SDS011;45732;52.850;6.896;2023-08-06T12:14:53;3.35;;;2.00;;
59854;SDS011;45732;52.850;6.896;2023-08-06T12:17:19;4.05;;;1.85;;
59854;SDS011;45732;52.850;6.896;2023-08-06T12:19:45;3.17;;;1.90;;
59854;SDS011;45732;52.850;6.896;2023-08-06T12:22:14;3.97;;;1.80;;
59854;SDS011;45732;52.850;6.896;2023-08-06T12:24:41;4.63;;;1.70;;
59854;SDS011;45732;52.850;6.896;2023-08-06T12:27:11;3.25;;;1.77;;
59854;SDS011;45732;52.850;6.896;2023-08-06T12:29:47;3.08;;;1.67;;
59854;SDS011;45732;52.850;6.896;2023-08-06T12:32:13;3.03;;;1.92;;
59854;SDS011;45732;52.850;6.896;2023-08-06T12:34:40;3.28;;;1.95;;
59854;SDS011;45732;52.850;6.896;2023-08-06T12:37:07;4.65;;;2.35;;
59854;SDS011;45732;52.850;6.896;2023-08-06T12:39:34;3.47;;;1.92;;
59854;SDS011;45732;52.850;6.896;2023-08-06T12:42:04;3.20;;;1.92;;
59854;SDS011;45732;52.850;6.896;2023-08-06T12:44:30;3.25;;;1.80;;
59854;SDS011;45732;52.850;6.896;2023-08-06T12:46:57;3.40;;;1.83;;
59854;SDS011;45732;52.850;6.896;2023-08-06T12:49:23;4.97;;;1.92;;
59854;SDS011;45732;52.850;6.896;2023-08-06T12:51:51;3.75;;;1.80;;
59854;SDS011;45732;52.850;6.896;2023-08-06T12:54:18;4.35;;;1.77;;
59854;SDS011;45732;52.850;6.896;2023-08-06T12:56:45;4.03;;;2.17;;
59854;SDS011;45732;52.850;6.896;2023-08-06T12:59:11;2.95;;;1.83;;
59854;SDS011;45732;52.850;6.896;2023-08-06T13:01:39;4.47;;;1.80;;
59854;SDS011;45732;52.850;6.896;2023-08-06T13:04:04;3.55;;;1.77;;
59854;SDS011;45732;52.850;6.896;2023-08-06T13:06:30;3.00;;;1.80;;
59854;SDS011;45732;52.850;6.896;2023-08-06T13:09:01;2.30;;;1.65;;
59854;SDS011;45732;52.850;6.896;2023-08-06T13:11:28;3.47;;;1.80;;
59854;SDS011;45732;52.850;6.896;2023-08-06T13:13:55;2.90;;;1.63;;
59854;SDS011;45732;52.850;6.896;2023-08-06T13:16:21;3.42;;;1.98;;
59854;SDS011;45732;52.850;6.896;2023-08-06T13:18:47;5.35;;;1.90;;
59854;SDS011;45732;52.850;6.896;2023-08-06T13:21:13;4.38;;;2.20;;
59854;SDS011;45732;52.850;6.896;2023-08-06T13:23:39;2.88;;;1.80;;
59854;SDS011;45732;52.850;6.896;2023-08-06T13:26:04;4.25;;;1.80;;
59854;SDS011;45732;52.850;6.896;2023-08-06T13:28:30;4.03;;;1.92;;
59854;SDS011;45732;52.850;6.896;2023-08-06T13:30:56;5.32;;;2.45;;
59854;SDS011;45732;52.850;6.896;2023-08-06T13:33:21;3.15;;;1.65;;
59854;SDS011;45732;52.850;6.896;2023-08-06T13:35:47;4.50;;;2.08;;
59854;SDS011;45732;52.850;6.896;2023-08-06T13:38:14;5.07;;;1.77;;
59854;SDS011;45732;52.850;6.896;2023-08-06T13:40:40;5.15;;;2.10;;
59854;SDS011;45732;52.850;6.896;2023-08-06T13:43:05;4.47;;;2.10;;
59854;SDS011;45732;52.850;6.896;2023-08-06T13:45:31;5.88;;;2.00;;
59854;SDS011;45732;52.850;6.896;2023-08-06T13:47:57;3.97;;;2.20;;
59854;SDS011;45732;52.850;6.896;2023-08-06T13:50:22;3.78;;;1.90;;
59854;SDS011;45732;52.850;6.896;2023-08-06T13:52:50;3.33;;;2.00;;
59854;SDS011;45732;52.850;6.896;2023-08-06T13:55:18;7.18;;;2.00;;
59854;SDS011;45732;52.850;6.896;2023-08-06T13:57:43;4.50;;;1.85;;
59854;SDS011;45732;52.850;6.896;2023-08-06T14:00:09;4.90;;;2.00;;
59854;SDS011;45732;52.850;6.896;2023-08-06T14:02:35;2.97;;;1.90;;
59854;SDS011;45732;52.850;6.896;2023-08-06T14:05:01;3.67;;;2.00;;
59854;SDS011;45732;52.850;6.896;2023-08-06T14:07:27;3.75;;;1.95;;
59854;SDS011;45732;52.850;6.896;2023-08-06T14:09:52;3.67;;;2.10;;
59854;SDS011;45732;52.850;6.896;2023-08-06T14:12:18;3.22;;;1.95;;
59854;SDS011;45732;52.850;6.896;2023-08-06T14:14:44;2.88;;;1.70;;
59854;SDS011;45732;52.850;6.896;2023-08-06T14:17:09;5.03;;;2.00;;
59854;SDS011;45732;52.850;6.896;2023-08-06T14:19:35;5.60;;;1.83;;
59854;SDS011;45732;52.850;6.896;2023-08-06T14:22:01;4.75;;;2.00;;
59854;SDS011;45732;52.850;6.896;2023-08-06T14:24:27;3.95;;;2.00;;
59854;SDS011;45732;52.850;6.896;2023-08-06T14:26:53;3.35;;;2.00;;
59854;SDS011;45732;52.850;6.896;2023-08-06T14:29:18;2.95;;;1.92;;
59854;SDS011;45732;52.850;6.896;2023-08-06T14:31:44;3.78;;;2.10;;
59854;SDS011;45732;52.850;6.896;2023-08-06T14:34:10;3.90;;;2.00;;
59854;SDS011;45732;52.850;6.896;2023-08-06T14:36:36;3.20;;;2.00;;
59854;SDS011;45732;52.850;6.896;2023-08-06T14:39:01;4.05;;;2.08;;
59854;SDS011;45732;52.850;6.896;2023-08-06T14:41:27;3.85;;;2.22;;
59854;SDS011;45732;52.850;6.896;2023-08-06T14:43:53;2.70;;;1.92;;
59854;SDS011;45732;52.850;6.896;2023-08-06T14:46:19;3.78;;;2.17;;
59854;SDS011;45732;52.850;6.896;2023-08-06T14:48:45;3.30;;;1.85;;
59854;SDS011;45732;52.850;6.896;2023-08-06T14:51:10;3.22;;;1.70;;
59854;SDS011;45732;52.850;6.896;2023-08-06T14:53:36;4.45;;;1.77;;
59854;SDS011;45732;52.850;6.896;2023-08-06T14:56:02;3.15;;;1.80;;